sensor_id;sensor_type;location;lat;lon;timestamp;pressure;altitude;pressure_sealevel;temperature;humidity
54918;BME280;40818;50.562;7.454;2023-04-24T00:05:03;96388.56;;;8.91;100.00
54918;BME280;40818;50.562;7.454;2023-04-24T00:15:10;96390.47;;;8.88;100.00
54918;BME280;40818;50.562;7.454;2023-04-24T00:25:14;96391.47;;;8.65;100.00
54918;BME280;40818;50.562;7.454;2023-04-24T00:35:20;96383.03;;;8.51;100.00
54918;BME280;40818;50.562;7.454;2023-04-24T00:45:24;96375.50;;;8.48;100.00
54918;BME280;40818;50.562;7.454;2023-04-24T00:55:33;96363.25;;;8.39;100.00
54918;BME280;40818;50.562;7.454;2023-04-24T01:05:37;96355.78;;;8.25;100.00
54918;BME280;40818;50.562;7.454;2023-04-24T01:15:43;96354.59;;;8.17;100.00
54918;BME280;40818;50.562;7.454;2023-04-24T01:25:50;96351.31;;;8.15;100.00
54918;BME280;40818;50.562;7.454;2023-04-24T01:35:53;96375.97;;;8.08;100.00
54918;BME280;40818;50.562;7.454;2023-04-24T01:45:59;96369.53;;;8.14;100.00
54918;BME280;40818;50.562;7.454;2023-04-24T01:56:03;96373.53;;;8.07;100.00
54918;BME280;40818;50.562;7.454;2023-04-24T02:06:10;96385.41;;;7.98;100.00
54918;BME280;40818;50.562;7.454;2023-04-24T02:16:13;96396.19;;;7.92;100.00
54918;BME280;40818;50.562;7.454;2023-04-24T02:26:19;96400.41;;;7.81;100.00
54918;BME280;40818;50.562;7.454;2023-04-24T02:36:22;96427.31;;;7.79;100.00
54918;BME280;40818;50.562;7.454;2023-04-24T02:46:28;96423.13;;;7.54;100.00
54918;BME280;40818;50.562;7.454;2023-04-24T02:56:32;96433.03;;;7.24;100.00
54918;BME280;40818;50.562;7.454;2023-04-24T03:06:38;96445.44;;;6.95;100.00
54918;BME280;40818;50.562;7.454;2023-04-24T03:16:42;96452.03;;;6.62;100.00
54918;BME280;40818;50.562;7.454;2023-04-24T03:26:48;96471.50;;;6.42;100.00
54918;BME280;40818;50.562;7.454;2023-04-24T03:37:06;96479.75;;;6.21;100.00
54918;BME280;40818;50.562;7.454;2023-04-24T03:47:17;96485.69;;;5.96;100.00
54918;BME280;40818;50.562;7.454;2023-04-24T03:57:22;96480.94;;;5.90;100.00
54918;BME280;40818;50.562;7.454;2023-04-24T04:07:45;96489.19;;;5.82;100.00
54918;BME280;40818;50.562;7.454;2023-04-24T04:17:49;96476.16;;;5.58;100.00
54918;BME280;40818;50.562;7.454;2023-04-24T04:27:56;96476.38;;;5.55;100.00
54918;BME280;40818;50.562;7.454;2023-04-24T04:38:00;96490.34;;;5.51;100.00
54918;BME280;40818;50.562;7.454;2023-04-24T04:48:24;96495.16;;;5.70;100.00
54918;BME280;40818;50.562;7.454;2023-04-24T04:58:29;96503.13;;;5.52;100.00
54918;BME280;40818;50.562;7.454;2023-04-24T05:08:38;96514.72;;;5.72;100.00
54918;BME280;40818;50.562;7.454;2023-04-24T05:18:51;96518.44;;;5.81;100.00
54918;BME280;40818;50.562;7.454;2023-04-24T05:29:04;96534.59;;;5.83;100.00
54918;BME280;40818;50.562;7.454;2023-04-24T05:39:08;96542.59;;;5.93;100.00
54918;BME280;40818;50.562;7.454;2023-04-24T05:49:14;96542.41;;;6.09;100.00
54918;BME280;40818;50.562;7.454;2023-04-24T05:59:17;96548.78;;;7.17;100.00
54918;BME280;40818;50.562;7.454;2023-04-24T06:09:24;96550.56;;;7.04;100.00
54918;BME280;40818;50.562;7.454;2023-04-24T06:19:28;96540.19;;;7.90;100.00
54918;BME280;40818;50.562;7.454;2023-04-24T06:29:36;96541.44;;;8.31;100.00
54918;BME280;40818;50.562;7.454;2023-04-24T06:39:40;96556.69;;;8.58;99.53
54918;BME280;40818;50.562;7.454;2023-04-24T06:49:47;96555.25;;;8.07;100.00
54918;BME280;40818;50.562;7.454;2023-04-24T06:59:51;96549.22;;;7.84;100.00
54918;BME280;40818;50.562;7.454;2023-04-24T07:09:57;96561.09;;;7.62;100.00
54918;BME280;40818;50.562;7.454;2023-04-24T07:20:01;96562.22;;;7.47;100.00
54918;BME280;40818;50.562;7.454;2023-04-24T07:30:08;96574.59;;;7.55;100.00
54918;BME280;40818;50.562;7.454;2023-04-24T07:40:12;96578.53;;;7.47;100.00
54918;BME280;40818;50.562;7.454;2023-04-24T07:50:18;96589.94;;;7.32;100.00
54918;BME280;40818;50.562;7.454;2023-04-24T08:00:22;96596.28;;;7.15;100.00
54918;BME280;40818;50.562;7.454;2023-04-24T08:10:28;96613.03;;;7.09;100.00
54918;BME280;40818;50.562;7.454;2023-04-24T08:20:31;96617.66;;;7.04;100.00
54918;BME280;40818;50.562;7.454;2023-04-24T08:30:37;96638.97;;;6.95;100.00
54918;BME280;40818;50.562;7.454;2023-04-24T08:40:41;96655.88;;;6.99;100.00
54918;BME280;40818;50.562;7.454;2023-04-24T08:50:50;96666.81;;;7.03;100.00
54918;BME280;40818;50.562;7.454;2023-04-24T09:00:54;96700.25;;;7.04;100.00
54918;BME280;40818;50.562;7.454;2023-04-24T09:11:01;96719.16;;;6.92;100.00
54918;BME280;40818;50.562;7.454;2023-04-24T09:21:07;96737.22;;;7.05;100.00
54918;BME280;40818;50.562;7.454;2023-04-24T09:31:15;96744.44;;;7.12;100.00
54918;BME280;40818;50.562;7.454;2023-04-24T09:41:19;96753.63;;;7.42;100.00
54918;BME280;40818;50.562;7.454;2023-04-24T09:51:33;96766.25;;;7.84;100.00
54918;BME280;40818;50.562;7.454;2023-04-24T10:01:38;96790.00;;;8.02;100.00
54918;BME280;40818;50.562;7.454;2023-04-24T10:11:46;96799.66;;;8.11;100.00
54918;BME280;40818;50.562;7.454;2023-04-24T10:21:50;96812.59;;;8.11;100.00
54918;BME280;40818;50.562;7.454;2023-04-24T10:31:57;96817.66;;;8.26;100.00
54918;BME280;40818;50.562;7.454;2023-04-24T10:42:01;96822.66;;;8.40;100.00
54918;BME280;40818;50.562;7.454;2023-04-24T10:52:08;96844.72;;;8.33;100.00
54918;BME280;40818;50.562;7.454;2023-04-24T11:02:14;96865.91;;;7.75;100.00
54918;BME280;40818;50.562;7.454;2023-04-24T11:12:20;96877.25;;;7.60;100.00
54918;BME280;40818;50.562;7.454;2023-04-24T11:22:24;96897.09;;;7.72;100.00
54918;BME280;40818;50.562;7.454;2023-04-24T11:32:34;96898.91;;;8.47;100.00
54918;BME280;40818;50.562;7.454;2023-04-24T11:42:40;96905.78;;;9.68;100.00
54918;BME280;40818;50.562;7.454;2023-04-24T11:52:48;96909.06;;;9.70;100.00
54918;BME280;40818;50.562;7.454;2023-04-24T12:03:03;96923.63;;;9.48;100.00
54918;BME280;40818;50.562;7.454;2023-04-24T12:13:09;96923.84;;;8.85;100.00
54918;BME280;40818;50.562;7.454;2023-04-24T12:23:13;96939.00;;;9.27;100.00
54918;BME280;40818;50.562;7.454;2023-04-24T12:33:21;96931.03;;;10.00;100.00
54918;BME280;40818;50.562;7.454;2023-04-24T12:43:24;96936.00;;;10.71;100.00
54918;BME280;40818;50.562;7.454;2023-04-24T12:53:30;96940.94;;;10.74;100.00
54918;BME280;40818;50.562;7.454;2023-04-24T13:03:34;96924.84;;;11.99;100.00
54918;BME280;40818;50.562;7.454;2023-04-24T13:13:41;96919.94;;;12.26;100.00
54918;BME280;40818;50.562;7.454;2023-04-24T13:23:44;96921.88;;;12.44;100.00
54918;BME280;40818;50.562;7.454;2023-04-24T13:33:50;96938.41;;;11.81;100.00
54918;BME280;40818;50.562;7.454;2023-04-24T13:43:54;96963.38;;;10.75;100.00
54918;BME280;40818;50.562;7.454;2023-04-24T13:54:00;96959.13;;;10.29;100.00
54918;BME280;40818;50.562;7.454;2023-04-24T14:04:03;96935.81;;;10.40;100.00
54918;BME280;40818;50.562;7.454;2023-04-24T14:14:10;96940.97;;;10.51;100.00
54918;BME280;40818;50.562;7.454;2023-04-24T14:24:13;96939.69;;;10.57;100.00
54918;BME280;40818;50.562;7.454;2023-04-24T14:34:20;96945.13;;;10.98;100.00
54918;BME280;40818;50.562;7.454;2023-04-24T14:44:23;96950.34;;;10.98;100.00
54918;BME280;40818;50.562;7.454;2023-04-24T14:54:29;96964.19;;;10.30;100.00
54918;BME280;40818;50.562;7.454;2023-04-24T15:04:33;96962.91;;;10.58;100.00
54918;BME280;40818;50.562;7.454;2023-04-24T15:14:39;96965.94;;;10.86;100.00
54918;BME280;40818;50.562;7.454;2023-04-24T15:24:42;96966.66;;;10.77;100.00
54918;BME280;40818;50.562;7.454;2023-04-24T15:34:49;96953.44;;;11.24;100.00
54918;BME280;40818;50.562;7.454;2023-04-24T15:44:52;96957.72;;;11.46;100.00
54918;BME280;40818;50.562;7.454;2023-04-24T15:54:58;96959.66;;;11.33;100.00
54918;BME280;40818;50.562;7.454;2023-04-24T16:05:02;96963.22;;;11.32;100.00
54918;BME280;40818;50.562;7.454;2023-04-24T16:15:10;96956.47;;;10.97;91.94
54918;BME280;40818;50.562;7.454;2023-04-24T16:25:13;96967.19;;;10.48;96.80
54918;BME280;40818;50.562;7.454;2023-04-24T16:35:20;96974.22;;;10.46;98.13
54918;BME280;40818;50.562;7.454;2023-04-24T16:45:23;96984.09;;;10.18;99.48
54918;BME280;40818;50.562;7.454;2023-04-24T16:55:29;96972.66;;;9.98;100.00
54918;BME280;40818;50.562;7.454;2023-04-24T17:05:33;96979.69;;;9.85;100.00
54918;BME280;40818;50.562;7.454;2023-04-24T17:15:40;96993.13;;;9.54;100.00
54918;BME280;40818;50.562;7.454;2023-04-24T17:25:44;96994.34;;;9.37;100.00
54918;BME280;40818;50.562;7.454;2023-04-24T17:35:50;97004.28;;;9.19;100.00
54918;BME280;40818;50.562;7.454;2023-04-24T17:45:54;96999.38;;;9.03;100.00
54918;BME280;40818;50.562;7.454;2023-04-24T17:56:02;97014.91;;;8.91;100.00
54918;BME280;40818;50.562;7.454;2023-04-24T18:06:06;97015.69;;;8.80;100.00
54918;BME280;40818;50.562;7.454;2023-04-24T18:16:12;97017.66;;;8.76;100.00
54918;BME280;40818;50.562;7.454;2023-04-24T18:26:16;97023.06;;;8.73;100.00
54918;BME280;40818;50.562;7.454;2023-04-24T18:36:22;97032.78;;;8.69;100.00
54918;BME280;40818;50.562;7.454;2023-04-24T18:46:26;97023.16;;;8.59;100.00
54918;BME280;40818;50.562;7.454;2023-04-24T18:56:33;97031.03;;;8.57;100.00
54918;BME280;40818;50.562;7.454;2023-04-24T19:06:37;97054.09;;;8.47;100.00
54918;BME280;40818;50.562;7.454;2023-04-24T19:16:43;97059.03;;;8.37;100.00
54918;BME280;40818;50.562;7.454;2023-04-24T19:26:47;97078.50;;;8.30;100.00
54918;BME280;40818;50.562;7.454;2023-04-24T19:36:53;97081.28;;;8.14;100.00
54918;BME280;40818;50.562;7.454;2023-04-24T19:46:57;97081.75;;;7.94;100.00
54918;BME280;40818;50.562;7.454;2023-04-24T19:57:03;97088.53;;;7.82;100.00
54918;BME280;40818;50.562;7.454;2023-04-24T20:07:07;97093.28;;;7.75;100.00
54918;BME280;40818;50.562;7.454;2023-04-24T20:17:13;97089.53;;;7.79;100.00
54918;BME280;40818;50.562;7.454;2023-04-24T20:27:16;97095.13;;;7.73;100.00
54918;BME280;40818;50.562;7.454;2023-04-24T20:37:23;97094.31;;;7.73;100.00
54918;BME280;40818;50.562;7.454;2023-04-24T20:47:28;97097.16;;;7.68;100.00
54918;BME280;40818;50.562;7.454;2023-04-24T20:57:34;97095.91;;;7.61;100.00
54918;BME280;40818;50.562;7.454;2023-04-24T21:07:38;97100.16;;;7.62;100.00
54918;BME280;40818;50.562;7.454;2023-04-24T21:17:44;97108.28;;;7.56;100.00
54918;BME280;40818;50.562;7.454;2023-04-24T21:27:48;97111.25;;;7.49;100.00
54918;BME280;40818;50.562;7.454;2023-04-24T21:37:54;97107.41;;;7.42;100.00
54918;BME280;40818;50.562;7.454;2023-04-24T21:47:57;97088.72;;;7.24;100.00
54918;BME280;40818;50.562;7.454;2023-04-24T21:58:03;97093.63;;;7.14;100.00
54918;BME280;40818;50.562;7.454;2023-04-24T22:08:07;97090.13;;;7.15;100.00
54918;BME280;40818;50.562;7.454;2023-04-24T22:18:13;97081.66;;;6.99;100.00
54918;BME280;40818;50.562;7.454;2023-04-24T22:28:17;97081.03;;;6.81;100.00
54918;BME280;40818;50.562;7.454;2023-04-24T22:38:23;97076.06;;;6.78;100.00
54918;BME280;40818;50.562;7.454;2023-04-24T22:48:26;97072.84;;;6.60;100.00
54918;BME280;40818;50.562;7.454;2023-04-24T22:58:32;97071.16;;;6.30;100.00
54918;BME280;40818;50.562;7.454;2023-04-24T23:08:36;97078.38;;;6.09;100.00
54918;BME280;40818;50.562;7.454;2023-04-24T23:18:42;97084.38;;;5.93;100.00
54918;BME280;40818;50.562;7.454;2023-04-24T23:28:45;97084.91;;;5.84;100.00
54918;BME280;40818;50.562;7.454;2023-04-24T23:38:51;97079.63;;;5.71;100.00
54918;BME280;40818;50.562;7.454;2023-04-24T23:48:55;97076.63;;;5.63;100.00
54918;BME280;40818;50.562;7.454;2023-04-24T23:59:01;97077.53;;;5.62;100.00
